Latest Weather Observations for Forbes

IDN60801

Issued at 8:35 am EST Thursday 2 October 2014 (issued every 30 minutes, with the page automatically refreshed every 10 minutes)

About weather observations | Map of weather stations | Latest weather observations for NSW | Other Formats
Station Details ID: 065103 Name: FORBES AIRPORT AWS Lat: -33.36 Lon: 147.92 Height: 230.4 m
Data from the previous 72 hours. | See also: Recent months at Forbes
Date/Time
EST
Temp
°C
App
Temp
°C
Dew
Point
Rel
Hum
%
Delta-T
°C
Wind Press
QNH
hPa
Press
MSL
hPa
Rain
since 9 am
mm
Dir
 
Spd
km/h
Gust
km/h
Spd
kts
Gust
kts
02/08:30am 11.5 9.3 3.5 58 3.6 S 4 9 2 5 1024.5 1024.1 0.0
02/08:00am 9.5 7.7 3.3 65 2.7 NNW 2 7 1 4 1024.4 1024.0 0.0
02/07:30am 7.0 4.2 3.1 76 1.7 N 7 9 4 5 1024.3 1023.9 0.0
02/07:00am 4.6 1.9 2.5 86 0.9 NNE 6 9 3 5 1023.9 1023.5 0.0
02/06:30am 3.0 1.3 2.0 93 0.4 NNW 0 0 0 0 1023.8 1023.4 0.0
02/06:00am 1.4 -0.5 0.4 93 0.4 CALM 0 0 0 0 1023.6 1023.2 0.0
02/05:30am 0.8 -1.6 -0.2 93 0.4 NNW 2 6 1 3 1023.5 1023.1 0.0
02/05:00am 0.7 -2.5 -0.4 92 0.4 N 6 7 3 4 1023.3 1022.9 0.0
02/04:30am 1.0 -1.0 -0.1 92 0.4 CALM 0 0 0 0 1023.1 1022.7 0.0
02/04:00am 1.1 -0.9 -0.4 90 0.5 CALM 0 0 0 0 1023.0 1022.6 0.0
02/03:30am 2.1 0.2 0.6 90 0.6 CALM 0 0 0 0 1022.9 1022.5 0.0
02/03:00am 1.7 -0.3 0.1 89 0.6 CALM 0 0 0 0 1023.0 1022.6 0.0
02/02:30am 1.5 -1.6 0.0 90 0.6 N 6 7 3 4 1023.2 1022.8 0.0
02/02:00am 1.7 -1.5 -0.4 86 0.8 NNW 6 11 3 6 1023.3 1022.9 0.0
02/01:30am 2.5 0.2 0.2 85 0.9 NNE 2 6 1 3 1023.6 1023.2 0.0
02/01:00am 4.2 0.6 0.9 79 1.3 S 9 13 5 7 1023.6 1023.2 0.0
02/12:30am 4.4 0.5 1.3 80 1.2 S 11 13 6 7 1023.8 1023.4 0.0
02/12:00am 3.8 0.6 0.5 79 1.3 S 7 11 4 6 1024.0 1023.6 0.0
 
Date/Time
EST
Temp
°C
App
Temp
°C
Dew
Point
Rel
Hum
%
Delta-T
°C
Wind Press
QNH
hPa
Press
MSL
hPa
Rain
since 9 am
mm
Dir
 
Spd
km/h
Gust
km/h
Spd
kts
Gust
kts
01/11:30pm 5.3 1.7 0.9 73 1.7 S 9 11 5 6 1024.1 1023.7 0.0
01/11:00pm 5.6 1.7 1.2 73 1.8 S 11 13 6 7 1024.1 1023.7 0.0
01/10:30pm 6.7 2.8 1.2 68 2.2 S 11 13 6 7 1024.1 1023.7 0.0
01/10:00pm 6.7 3.2 1.4 69 2.1 S 9 11 5 6 1024.0 1023.6 0.0
01/09:30pm 7.0 2.7 0.9 65 2.5 SSW 13 13 7 7 1023.7 1023.3 0.0
01/09:00pm 8.4 4.5 0.9 59 3.1 S 11 13 6 7 1023.8 1023.4 0.0
01/08:30pm 8.2 3.9 0.9 60 3.0 S 13 15 7 8 1023.7 1023.3 0.0
01/08:00pm 8.9 5.3 0.9 57 3.3 SSW 9 11 5 6 1023.5 1023.1 0.0
01/07:30pm 9.1 4.8 0.8 56 3.4 SSW 13 13 7 7 1023.0 1022.6 0.0
01/07:00pm 10.2 6.6 0.3 50 4.1 SSW 9 13 5 7 1022.5 1022.1 0.0
01/06:30pm 11.8 8.5 0.0 44 4.9 SSW 7 9 4 5 1021.9 1021.6 0.0
01/06:00pm 14.4 8.5 -2.1 32 6.7 S 19 24 10 13 1022.0 1021.7 0.0
01/05:30pm 15.9 10.3 -2.6 28 7.5 SSW 17 26 9 14 1021.7 1021.4 0.0
01/05:00pm 17.0 11.4 -2.6 26 8.1 SSW 17 28 9 15 1021.4 1021.1 0.0
01/04:30pm 17.4 10.9 -2.8 25 8.3 S 22 32 12 17 1021.1 1020.7 0.0
01/04:00pm 17.9 11.0 -2.4 25 8.5 S 24 35 13 19 1021.0 1020.6 0.0
01/03:30pm 18.0 11.5 -2.3 25 8.5 S 22 32 12 17 1020.8 1020.4 0.0
01/03:00pm 18.1 11.6 -2.8 24 8.6 S 22 30 12 16 1020.9 1020.5 0.0
01/02:30pm 17.9 11.0 -2.9 24 8.6 SSW 24 37 13 20 1021.0 1020.6 0.0
01/02:00pm 17.9 11.5 -1.9 26 8.3 SSW 22 35 12 19 1021.1 1020.7 0.0
01/01:30pm 17.0 9.0 -2.6 26 8.1 S 30 41 16 22 1021.4 1021.1 0.0
01/01:00pm 17.1 11.2 -1.1 29 7.7 SW 20 24 11 13 1021.7 1021.4 0.0
01/12:30pm 16.6 10.1 -2.5 27 7.9 SSW 22 33 12 18 1021.8 1021.5 0.0
01/12:00pm 16.0 8.3 -3.0 27 7.7 SSW 28 39 15 21 1022.0 1021.7 0.0
01/11:30am 15.8 8.6 -1.7 30 7.3 SSW 26 33 14 18 1022.0 1021.7 0.0
01/11:00am 15.1 8.3 -1.9 31 7.0 SSW 24 39 13 21 1022.2 1021.9 0.0
01/10:30am 14.3 8.0 -0.9 35 6.3 SSW 22 35 12 19 1022.7 1022.3 0.0
01/10:00am 13.6 6.5 -1.2 36 6.1 SSW 26 37 14 20 1022.6 1022.2 0.0
01/09:30am 13.1 7.1 0.8 43 5.3 S 22 32 12 17 1022.7 1022.6 0.0
01/09:00am 12.3 6.4 1.6 48 4.6 S 22 28 12 15 1022.6 1022.5 0.0
01/08:30am 11.2 4.6 2.0 53 4.0 S 26 37 14 20 1022.5 1022.4 0.0
01/08:00am 10.8 4.6 2.4 56 3.6 S 24 32 13 17 1022.2 1022.2 0.0
01/07:30am 10.0 4.8 2.6 60 3.2 SSW 19 28 10 15 1021.9 1021.9 0.0
01/07:00am 8.9 3.7 2.5 64 2.7 SSW 19 22 10 12 1021.7 1021.7 0.0
01/06:30am 7.4 4.2 2.9 73 1.9 S 9 13 5 7 1021.3 1021.3 0.0
01/06:00am 6.7 3.0 2.4 74 1.8 SSW 11 17 6 9 1020.8 1020.8 0.0
01/05:30am 7.1 3.1 2.8 74 1.8 SW 13 19 7 10 1020.1 1020.0 0.0
01/05:00am 7.0 3.1 3.3 77 1.6 SW 13 17 7 9 1019.5 1019.4 0.0
01/04:30am 7.1 3.5 3.0 75 1.7 WSW 11 13 6 7 1019.0 1018.9 0.0
01/04:00am 7.9 3.6 3.2 72 2.0 SW 15 20 8 11 1018.7 1018.6 0.0
01/03:30am 8.6 5.8 3.4 70 2.3 WSW 7 9 4 5 1018.5 1018.4 0.0
01/03:00am 8.9 5.7 3.1 67 2.5 SW 9 13 5 7 1018.3 1018.2 0.0
01/02:30am 9.5 6.3 3.0 64 2.8 WSW 9 13 5 7 1018.1 1018.0 0.0
01/02:00am 11.5 6.8 3.0 56 3.8 SW 17 28 9 15 1018.0 1017.9 0.0
01/01:30am 12.6 6.8 2.2 49 4.6 SSW 22 35 12 19 1017.5 1017.5 0.0
01/01:04am 13.2 6.2 1.8 46 5.0 SW 28 54 15 29 1017.2 1017.2 0.0
01/01:00am 13.1 6.6 2.4 48 4.7 SW 26 44 14 24 1017.1 1017.1 0.0
01/12:30am 13.7 5.3 3.8 51 4.5 SSW 37 54 20 29 1016.7 1016.7 0.0
01/12:14am 14.1 7.7 5.2 55 4.2 SSW 28 50 15 27 1016.4 1016.3 0.0
01/12:00am 14.2 8.6 7.0 62 3.5 SSW 26 39 14 21 1016.0 1015.9 0.0
 
Date/Time
EST
Temp
°C
App
Temp
°C
Dew
Point
Rel
Hum
%
Delta-T
°C
Wind Press
QNH
hPa
Press
MSL
hPa
Rain
since 9 am
mm
Dir
 
Spd
km/h
Gust
km/h
Spd
kts
Gust
kts
30/11:30pm 15.2 8.8 7.0 58 4.1 SSW 30 43 16 23 1015.4 1015.3 0.0
30/11:00pm 16.6 7.2 7.3 54 4.7 SSW 46 67 25 36 1014.6 1014.5 0.0
30/10:50pm 18.1 9.5 4.7 41 6.5 SW 39 57 21 31 1014.0 1013.9 0.0
30/10:49pm 17.4 9.3 3.3 39 6.6 SW 35 50 19 27 1013.7 1013.6 0.0
30/10:30pm 13.2 9.6 3.0 50 4.6 NW 11 13 6 7 1012.5 1012.4 0.0
30/10:00pm 15.6 11.9 2.1 40 6.1 WNW 11 13 6 7 1012.3 1012.2 0.0
30/09:30pm 19.7 14.9 0.2 27 8.7 W 15 17 8 9 1012.2 1012.1 0.0
30/09:00pm 22.2 16.3 -0.5 22 10.2 W 20 30 11 16 1012.2 1012.1 0.0
30/08:30pm 17.9 13.3 1.4 33 7.5 W 15 20 8 11 1012.0 1011.9 0.0
30/08:00pm 19.3 15.9 3.9 36 7.4 W 11 13 6 7 1011.9 1011.8 0.0
30/07:30pm 19.6 15.8 4.1 36 7.5 WSW 13 15 7 8 1011.6 1011.5 0.0
30/07:00pm 21.0 17.2 4.1 33 8.3 WSW 13 19 7 10 1011.2 1011.1 0.0
30/06:30pm 24.0 18.8 3.3 26 10.2 W 20 28 11 15 1010.8 1010.7 0.0
30/06:00pm 24.8 19.9 4.0 26 10.4 W 19 24 10 13 1010.5 1010.4 0.0
30/05:30pm 26.7 21.7 4.5 24 11.3 W 20 28 11 15 1010.3 1010.2 0.0
30/05:00pm 27.5 21.7 4.5 23 11.8 W 24 33 13 18 1010.3 1010.2 0.0
30/04:30pm 28.3 21.8 4.6 22 12.2 WNW 28 44 15 24 1010.2 1010.1 0.0
30/04:01pm 28.7 22.4 5.5 23 12.2 WNW 28 46 15 25 1010.3 1010.2 0.0
30/04:00pm 28.6 21.7 4.8 22 12.4 WNW 30 46 16 25 1010.3 1010.2 0.0
30/03:52pm 28.5 21.8 3.4 20 12.7 W 28 46 15 25 1010.4 1010.3 0.0
30/03:30pm 29.2 23.1 4.6 21 12.8 W 26 39 14 21 1010.7 1010.6 0.0
30/03:13pm 29.6 23.3 5.6 22 12.7 W 28 46 15 25 1010.8 1010.7 0.0
30/03:00pm 29.5 22.7 4.9 21 12.9 W 30 41 16 22 1010.9 1010.8 0.0
30/02:30pm 30.1 24.6 6.1 22 12.9 W 24 33 13 18 1011.1 1011.0 0.0
30/02:00pm 29.7 22.9 5.1 21 12.9 W 30 41 16 22 1011.5 1011.4 0.0
30/01:30pm 29.7 22.8 4.4 20 13.1 W 30 39 16 21 1011.7 1011.6 0.0
30/01:00pm 29.9 24.4 5.9 22 12.8 W 24 32 13 17 1011.9 1011.8 0.0
30/12:30pm 29.7 24.7 6.4 23 12.5 NW 22 32 12 17 1012.3 1012.2 0.0
30/12:00pm 28.2 23.6 6.3 25 11.7 NW 20 26 11 14 1012.7 1012.6 0.0
30/11:30am 27.8 23.3 6.0 25 11.5 W 19 24 10 13 1013.1 1013.1 0.0
30/11:00am 26.8 21.5 5.1 25 11.2 NW 22 35 12 19 1013.9 1013.8 0.0
30/10:30am 26.7 21.9 4.5 24 11.3 NNW 19 28 10 15 1014.2 1014.1 0.0
30/10:00am 26.1 21.3 7.2 30 10.1 N 22 28 12 15 1014.5 1014.4 0.0
30/09:30am 24.8 19.5 7.0 32 9.4 N 24 33 13 18 1014.6 1014.5 0.0
30/09:00am 23.6 18.2 6.4 33 8.9 N 24 32 13 17 1015.0 1014.9 0.0
30/08:30am 21.4 16.8 6.5 38 7.6 N 20 24 11 13 1015.1 1015.0 0.0
30/08:00am 19.7 16.7 7.8 46 6.2 N 13 17 7 9 1015.3 1015.2 0.0
30/07:30am 18.2 15.1 7.3 49 5.6 N 13 20 7 11 1015.1 1015.0 0.0
30/07:00am 15.8 14.0 8.1 60 3.9 N 7 11 4 6 1015.1 1015.0 0.0
30/06:30am 12.7 9.6 7.4 70 2.6 N 13 15 7 8 1015.0 1014.9 0.0
30/06:00am 12.3 9.6 7.2 71 2.5 N 11 13 6 7 1014.6 1014.5 0.0
30/05:30am 11.1 8.5 6.3 72 2.3 N 9 13 5 7 1014.3 1014.2 0.0
30/05:00am 11.8 8.8 6.1 68 2.7 N 11 15 6 8 1014.0 1013.9 0.0
30/04:30am 11.9 8.5 5.8 66 2.9 N 13 15 7 8 1013.7 1013.6 0.0
30/04:00am 12.4 9.7 5.6 63 3.2 WNW 9 15 5 8 1013.5 1013.4 0.0
30/03:30am 14.1 10.7 5.7 57 4.0 NNW 13 15 7 8 1013.4 1013.3 0.0
30/03:00am 13.7 11.1 6.3 61 3.6 WNW 9 15 5 8 1013.5 1013.4 0.0
30/02:30am 14.4 11.1 6.3 58 3.9 N 13 15 7 8 1013.0 1013.0 0.0
30/02:00am 14.5 10.8 6.1 57 4.1 N 15 17 8 9 1013.0 1013.0 0.0
30/01:30am 15.7 11.7 6.7 55 4.5 N 17 20 9 11 1013.4 1013.3 0.0
30/01:00am 12.6 9.5 7.3 70 2.6 N 13 17 7 9 1013.6 1013.5 0.0
30/12:30am 13.1 9.5 6.9 66 3.0 N 15 19 8 10 1014.0 1013.9 0.0
30/12:00am 12.3 9.3 7.6 73 2.3 NE 13 15 7 8 1014.3 1014.2 0.0
 
Date/Time
EST
Temp
°C
App
Temp
°C
Dew
Point
Rel
Hum
%
Delta-T
°C
Wind Press
QNH
hPa
Press
MSL
hPa
Rain
since 9 am
mm
Dir
 
Spd
km/h
Gust
km/h
Spd
kts
Gust
kts
29/11:30pm 11.7 8.6 7.2 74 2.2 NNE 13 15 7 8 1014.3 1014.2 0.0
29/11:00pm 11.8 9.0 7.1 73 2.3 NNE 11 13 6 7 1014.6 1014.5 0.0
29/10:30pm 12.6 9.5 7.1 69 2.7 NNE 13 15 7 8 1014.8 1014.7 0.0
29/10:00pm 13.4 9.5 7.2 66 3.1 N 17 20 9 11 1014.8 1014.7 0.0
29/09:30pm 13.8 9.9 7.1 64 3.3 NNE 17 19 9 10 1014.8 1014.7 0.0
29/09:00pm 14.2 11.8 7.0 62 3.5 NE 9 15 5 8 1014.8 1014.7 0.0
29/08:30pm 15.4 12.6 6.9 57 4.2 N 11 15 6 8 1014.7 1014.6 0.0
29/08:00pm 16.1 14.3 8.1 59 4.1 N 7 9 4 5 1014.5 1014.4 0.0
29/07:30pm 16.2 14.6 8.2 59 4.1 N 6 7 3 4 1014.3 1014.2 0.0
29/07:00pm 19.4 17.0 7.2 45 6.3 NW 9 9 5 5 1014.0 1013.9 0.0
29/06:30pm 19.5 17.0 8.2 48 5.9 WNW 11 13 6 7 1013.7 1013.6 0.0
29/06:00pm 22.3 19.3 7.7 39 7.7 NW 13 13 7 7 1013.5 1013.4 0.0
29/05:30pm 24.9 21.9 7.5 33 9.3 NW 13 15 7 8 1013.2 1013.2 0.0
29/05:00pm 27.4 23.8 6.8 27 11.0 NW 15 19 8 10 1013.0 1013.0 0.0
29/04:30pm 28.7 24.3 4.9 22 12.4 WNW 17 24 9 13 1012.9 1012.9 0.0
29/04:00pm 28.9 23.5 4.4 21 12.7 NW 22 30 12 16 1012.9 1012.9 0.0
29/03:30pm 29.1 23.2 3.9 20 12.9 W 24 35 13 19 1013.0 1013.0 0.0
29/03:00pm 29.2 24.2 4.6 21 12.8 NW 20 33 11 18 1013.1 1013.1 0.0
29/02:30pm 29.1 24.1 4.6 21 12.7 WNW 20 32 11 17 1013.4 1013.3 0.0
29/02:00pm 28.8 23.0 4.3 21 12.6 WNW 24 39 13 21 1013.7 1013.6 0.0
29/01:30pm 28.3 22.3 3.2 20 12.7 WNW 24 33 13 18 1014.1 1014.0 0.0
29/01:00pm 28.1 22.3 4.4 22 12.2 NW 24 33 13 18 1014.4 1014.3 0.0
29/12:30pm 27.3 21.1 4.4 23 11.7 NW 26 33 14 18 1014.8 1014.7 0.0
29/12:00pm 26.3 20.7 5.3 26 10.8 NW 24 33 13 18 1015.3 1015.2 0.0
29/11:30am 25.4 20.5 5.1 27 10.4 NW 20 32 11 17 1015.6 1015.5 0.0
29/11:00am 25.2 20.5 5.9 29 10.0 NNW 20 28 11 15 1016.1 1016.0 0.0
29/10:30am 23.8 18.8 4.7 29 9.6 NNW 20 32 11 17 1016.4 1016.3 0.0
29/10:00am 22.9 18.1 4.9 31 9.0 NNW 19 26 10 14 1016.8 1016.8 0.0
29/09:30am 22.1 17.5 5.5 34 8.4 N 19 24 10 13 1017.1 1017.1 0.0
29/09:00am 19.7 15.1 5.4 39 7.1 NW 19 24 10 13 1017.4 1017.4 0.0

Other Formats:

Comma delimited format used in spreadsheet applications
http://www.bom.gov.au/fwo/IDN60801/IDN60801.94715.axf

JavaScript Object Notation format (JSON) in row-major order
http://www.bom.gov.au/fwo/IDN60801/IDN60801.94715.json